Time;durP1;ratioP1;P1;durP2;ratioP2;P2;SDS_P1;SDS_P2;PMS_P1;PMS_P2;Temp;Humidity;BMP_temperature;BMP_pressure;BME280_temperature;BME280_humidity;BME280_pressure;Samples;Min_cycle;Max_cycle;Signal;HPM_P1;HPM_P2
2023/01/06 00:01:27;;;;;;;5.40;4.90;;;;;;;9.35;54.80;95264.13;5115848;28;20302;-71
2023/01/06 00:03:58;;;;;;;4.88;4.38;;;;;;;9.34;54.49;95281.00;5115006;28;20192;-72
2023/01/06 00:06:27;;;;;;;5.28;4.78;;;;;;;9.35;54.75;95282.59;5115230;28;20200;-71
2023/01/06 00:08:55;;;;;;;5.50;5.00;;;;;;;9.35;54.88;95282.59;5116075;28;20256;-71
2023/01/06 00:11:23;;;;;;;5.75;4.93;;;;;;;9.35;54.73;95288.09;5116402;28;20237;-71
2023/01/06 00:13:51;;;;;;;5.95;5.40;;;;;;;9.34;55.23;95294.75;5116191;28;20184;-71
2023/01/06 00:16:23;;;;;;;8.88;8.07;;;;;;;9.28;56.45;95296.13;5114733;28;20199;-71
2023/01/06 00:18:55;;;;;;;9.30;8.40;;;;;;;9.13;57.14;95308.56;5114687;28;20196;-71
2023/01/06 00:21:23;;;;;;;10.30;9.20;;;;;;;9.00;57.06;95304.94;5115562;28;20176;-72
2023/01/06 00:23:51;;;;;;;8.82;7.93;;;;;;;8.91;57.05;95310.53;5114935;28;20203;-71
2023/01/06 00:26:19;;;;;;;8.27;7.35;;;;;;;8.86;57.21;95320.91;5115241;28;20207;-71
2023/01/06 00:28:47;;;;;;;8.40;7.15;;;;;;;8.84;57.57;95323.22;5114538;28;20195;-71
2023/01/06 00:31:16;;;;;;;7.70;6.90;;;;;;;8.79;57.79;95326.16;5132003;27;20203;-71
2023/01/06 00:33:45;;;;;;;8.05;7.13;;;;;;;8.73;58.20;95324.75;5114867;28;20236;-71
2023/01/06 00:36:14;;;;;;;8.20;7.40;;;;;;;8.75;58.04;95319.69;5114568;28;20195;-71
2023/01/06 00:38:42;;;;;;;8.50;7.70;;;;;;;8.75;57.97;95315.03;5114405;28;20210;-71
2023/01/06 00:43:55;;;;;;;6.28;5.68;;;;;;;8.83;58.44;95322.41;5113924;28;20212;-71
2023/01/06 00:46:25;;;;;;;6.03;5.45;;;;;;;8.91;58.27;95331.72;5115334;28;20196;-71
2023/01/06 00:48:55;;;;;;;6.20;5.60;;;;;;;8.94;58.33;95335.75;5115566;28;20183;-71
2023/01/06 00:51:23;;;;;;;6.47;5.88;;;;;;;8.97;58.46;95335.91;5115518;28;20203;-71
2023/01/06 00:53:50;;;;;;;6.00;5.50;;;;;;;9.01;58.46;95333.28;5115228;28;20191;-71
2023/01/06 00:56:20;;;;;;;6.57;5.45;;;;;;;9.07;58.37;95340.16;5115511;28;20207;-71
2023/01/06 00:58:50;;;;;;;6.03;5.60;;;;;;;9.07;58.55;95334.66;5115479;28;20210;-71
2023/01/06 01:01:18;;;;;;;6.30;5.60;;;;;;;9.06;58.73;95352.31;5117102;28;20187;-71
2023/01/06 01:03:47;;;;;;;5.60;5.10;;;;;;;9.08;58.81;95341.78;5119062;28;20214;-71
2023/01/06 01:06:16;;;;;;;6.32;5.35;;;;;;;9.07;58.82;95346.47;5118483;28;20196;-71
2023/01/06 01:08:45;;;;;;;5.90;5.40;;;;;;;9.07;58.97;95342.91;5118712;28;20496;-71
2023/01/06 01:12:08;;;;;;;6.07;5.47;;;;;;;9.08;59.06;95347.31;5118470;28;20211;-71
2023/01/06 01:14:03;;;;;;;5.60;5.10;;;;;;;9.07;59.14;95342.91;5118567;28;20199;-71
2023/01/06 01:16:31;;;;;;;5.75;5.25;;;;;;;9.04;59.43;95347.16;5119244;28;20214;-71
2023/01/06 01:19:00;;;;;;;5.43;5.00;;;;;;;9.03;59.53;95339.22;5117956;28;20248;-71
2023/01/06 01:21:33;;;;;;;5.50;5.00;;;;;;;9.03;59.61;95340.03;5118664;28;20206;-71
2023/01/06 01:24:01;;;;;;;6.03;5.50;;;;;;;9.03;59.67;95339.22;5119136;28;20180;-71
2023/01/06 01:26:29;;;;;;;5.85;5.35;;;;;;;9.04;59.52;95341.66;5118182;28;20207;-71
2023/01/06 01:28:57;;;;;;;5.38;4.88;;;;;;;9.01;59.66;95328.56;5135249;27;20192;-71
2023/01/06 01:31:25;;;;;;;6.03;4.78;;;;;;;9.02;59.54;95330.19;5119055;28;20240;-71
2023/01/06 01:33:53;;;;;;;5.53;4.97;;;;;;;9.01;59.44;95336.81;5118375;28;20188;-71
2023/01/06 01:36:23;;;;;;;5.40;4.95;;;;;;;9.00;59.74;95340.69;5118634;28;20183;-71
2023/01/06 01:38:55;;;;;;;5.30;4.80;;;;;;;9.01;59.77;95342.34;5118257;28;20184;-71
2023/01/06 01:41:24;;;;;;;5.15;4.63;;;;;;;8.99;59.95;95330.84;5117914;28;20199;-71
2023/01/06 01:43:55;;;;;;;5.13;4.65;;;;;;;8.99;59.74;95325.34;5117957;28;20223;-71
2023/01/06 01:46:27;;;;;;;5.18;4.68;;;;;;;8.97;60.03;95307.56;5117600;28;20203;-71
2023/01/06 01:48:56;;;;;;;5.03;4.63;;;;;;;8.98;59.93;95292.69;5134776;27;20543;-71
2023/01/06 01:51:29;;;;;;;5.50;4.32;;;;;;;8.95;60.00;95285.91;5117906;28;20196;-71
2023/01/06 01:54:00;;;;;;;5.72;4.57;;;;;;;8.95;60.05;95288.66;5117731;28;20634;-71
2023/01/06 01:56:30;;;;;;;4.25;3.95;;;;;;;8.95;59.85;95304.34;5117313;28;20206;-71
2023/01/06 01:59:00;;;;;;;4.63;4.20;;;;;;;8.95;59.87;95293.34;5134547;27;20211;-71
2023/01/06 02:01:29;;;;;;;4.50;4.10;;;;;;;8.94;59.81;95300.00;5117549;28;20192;-71
2023/01/06 02:03:59;;;;;;;4.05;3.75;;;;;;;8.93;59.87;95279.91;5118340;28;20583;-71
2023/01/06 02:06:27;;;;;;;3.88;3.58;;;;;;;8.92;59.75;95284.63;5117800;28;20191;-71
2023/01/06 02:09:01;;;;;;;3.80;3.50;;;;;;;8.96;59.86;95295.75;5117984;28;20203;-71
2023/01/06 02:11:32;;;;;;;4.05;3.75;;;;;;;8.98;59.39;95304.47;5118296;28;20196;-71
2023/01/06 02:14:08;;;;;;;3.92;3.63;;;;;;;8.99;59.52;95319.84;5117415;28;20191;-71
2023/01/06 02:16:43;;;;;;;3.78;3.47;;;;;;;8.99;59.50;95325.34;5117348;28;20199;-71
2023/01/06 02:19:45;;;;;;;3.90;3.60;;;;;;;9.00;59.57;95337.16;5117280;28;20264;-71
2023/01/06 02:22:30;;;;;;;3.75;3.45;;;;;;;8.98;59.39;95342.19;5117237;28;20222;-71
2023/01/06 02:25:43;;;;;;;3.78;3.47;;;;;;;8.99;59.30;95343.81;5117081;28;20214;-71
2023/01/06 02:28:45;;;;;;;4.50;3.42;;;;;;;8.97;59.32;95357.91;5081792;28;20204;-71
2023/01/06 02:31:31;;;;;;;3.97;3.58;;;;;;;8.98;59.32;95358.72;5117547;28;20199;-71
2023/01/06 02:34:05;;;;;;;4.00;3.70;;;;;;;8.97;59.08;95355.16;5117835;28;20199;-71
2023/01/06 02:36:39;;;;;;;4.13;3.70;;;;;;;8.97;58.97;95357.06;5116933;28;20199;-71
2023/01/06 02:39:17;;;;;;;4.35;3.95;;;;;;;8.97;58.78;95357.06;5116626;28;20196;-71
2023/01/06 02:41:50;;;;;;;4.15;3.85;;;;;;;8.92;58.98;95355.34;5117750;28;20176;-71
2023/01/06 02:44:23;;;;;;;4.13;3.83;;;;;;;8.91;59.11;95345.47;5117491;28;20180;-71
2023/01/06 02:47:10;;;;;;;4.63;4.25;;;;;;;8.90;59.22;95349.38;5116747;28;20199;-71
2023/01/06 02:49:46;;;;;;;4.57;4.10;;;;;;;8.91;58.96;95349.03;5117409;28;20624;-71
2023/01/06 02:52:23;;;;;;;4.88;4.40;;;;;;;8.93;59.12;95345.94;5116864;28;20199;-71
2023/01/06 02:54:55;;;;;;;5.00;4.60;;;;;;;8.91;58.82;95353.72;5116520;28;20196;-71
2023/01/06 02:57:30;;;;;;;5.22;4.53;;;;;;;8.90;58.83;95347.44;5116258;28;20180;-71
2023/01/06 03:00:04;;;;;;;4.50;4.10;;;;;;;8.90;58.97;95339.19;5116312;28;20195;-71
2023/01/06 03:02:37;;;;;;;4.60;4.20;;;;;;;8.91;58.84;95331.72;5116415;28;20233;-71
2023/01/06 03:05:06;;;;;;;5.00;4.50;;;;;;;8.91;58.68;95328.97;5116050;28;20199;-71
2023/01/06 03:07:36;;;;;;;4.68;4.28;;;;;;;8.90;58.59;95324.63;5117211;28;20179;-71
2023/01/06 03:10:06;;;;;;;4.50;4.10;;;;;;;8.90;58.34;95324.63;5116289;28;20273;-71
2023/01/06 03:12:41;;;;;;;4.70;4.30;;;;;;;8.88;58.45;95324.94;5116270;28;20265;-71
2023/01/06 03:15:10;;;;;;;4.47;4.07;;;;;;;8.89;58.45;95323.00;5116054;28;20619;-71
2023/01/06 03:17:40;;;;;;;4.60;4.22;;;;;;;8.89;58.17;95321.03;5116704;28;20631;-71
2023/01/06 03:20:09;;;;;;;4.15;3.85;;;;;;;8.87;58.16;95333.53;5116194;28;20604;-71
2023/01/06 03:22:38;;;;;;;4.10;3.78;;;;;;;8.86;58.02;95327.25;5116608;28;20212;-71
2023/01/06 03:25:07;;;;;;;4.60;3.70;;;;;;;8.86;58.07;95343.75;5115088;28;20252;-71
2023/01/06 03:27:36;;;;;;;4.38;3.97;;;;;;;8.83;58.15;95340.84;5116164;28;20254;-71
2023/01/06 03:30:08;;;;;;;4.20;3.80;;;;;;;8.83;58.14;95360.13;5115860;28;20203;-71
2023/01/06 03:32:44;;;;;;;4.53;4.15;;;;;;;8.81;58.21;95354.13;5115798;28;20216;-71
2023/01/06 03:35:31;;;;;;;4.28;3.88;;;;;;;8.84;58.32;95364.47;5115654;28;20187;-71
2023/01/06 03:38:05;;;;;;;4.28;3.88;;;;;;;8.83;58.02;95355.41;5115709;28;20571;-71
2023/01/06 03:40:37;;;;;;;3.83;3.58;;;;;;;8.83;58.26;95340.84;5116254;28;20231;-71
2023/01/06 03:43:11;;;;;;;3.60;3.30;;;;;;;8.79;58.22;95342.66;5115530;28;20207;-71
2023/01/06 03:45:59;;;;;;;4.20;3.80;;;;;;;8.76;58.09;95343.34;5115916;28;20191;-71
2023/01/06 03:48:39;;;;;;;3.97;3.47;;;;;;;8.72;57.92;95334.16;5115728;28;20207;-71
2023/01/06 03:51:10;;;;;;;4.30;3.90;;;;;;;8.69;58.39;95330.13;5115081;28;20200;-71
2023/01/06 03:53:42;;;;;;;4.18;3.78;;;;;;;8.68;58.40;95339.50;5115727;28;20215;-71
2023/01/06 03:56:16;;;;;;;4.30;3.90;;;;;;;8.67;58.18;95344.19;5115115;28;20203;-71
2023/01/06 03:58:45;;;;;;;4.15;3.78;;;;;;;8.64;58.12;95341.28;5115149;28;20224;-71
2023/01/06 04:01:12;;;;;;;4.97;4.47;;;;;;;8.61;58.26;95345.53;5115249;28;20604;-71
2023/01/06 04:03:44;;;;;;;4.65;4.25;;;;;;;8.61;58.21;95340.03;5115566;28;20219;-71
2023/01/06 04:06:12;;;;;;;4.20;3.63;;;;;;;8.61;58.06;95348.28;5115857;28;20506;-71
2023/01/06 04:08:40;;;;;;;3.80;3.50;;;;;;;8.60;58.04;95357.66;5115156;28;20615;-71
2023/01/06 04:12:37;;;;;;;4.22;3.83;;;;;;;8.59;58.17;95355.25;5116099;28;20184;-71
2023/01/06 04:13:56;;;;;;;4.20;3.90;;;;;;;8.56;58.31;95370.44;5115702;28;20278;-71
2023/01/06 04:16:23;;;;;;;4.03;3.70;;;;;;;8.55;58.08;95365.31;5115969;28;20216;-71
2023/01/06 04:18:52;;;;;;;4.45;4.05;;;;;;;8.54;58.15;95358.19;5115639;28;20203;-71
2023/01/06 04:21:19;;;;;;;3.92;3.63;;;;;;;8.54;58.21;95367.25;5115989;28;20211;-71
2023/01/06 04:23:47;;;;;;;4.32;3.92;;;;;;;8.50;58.28;95371.81;5114792;28;20547;-71
2023/01/06 04:26:15;;;;;;;4.15;3.80;;;;;;;8.46;58.12;95370.84;5115055;28;20187;-71
2023/01/06 04:28:43;;;;;;;4.15;3.80;;;;;;;8.44;58.37;95384.13;5114924;28;20196;-71
2023/01/06 04:31:11;;;;;;;4.90;4.40;;;;;;;8.43;58.09;95386.06;5114443;28;20210;-70
2023/01/06 04:33:38;;;;;;;3.63;3.33;;;;;;;8.43;58.42;95391.56;5114648;28;20204;-70
2023/01/06 04:36:12;;;;;;;4.70;4.28;;;;;;;8.46;58.55;95414.00;5114869;28;20195;-70
2023/01/06 04:38:39;;;;;;;3.30;3.10;;;;;;;8.47;58.17;95397.19;5114717;28;20211;-70
2023/01/06 04:41:05;;;;;;;3.55;3.25;;;;;;;8.43;58.21;95399.81;5114229;28;20234;-70
2023/01/06 04:43:33;;;;;;;3.95;3.03;;;;;;;8.46;58.05;95387.34;5114504;28;20222;-71
2023/01/06 04:46:01;;;;;;;3.05;2.83;;;;;;;8.46;57.88;95387.34;5114450;28;20199;-70
2023/01/06 04:48:29;;;;;;;3.53;3.22;;;;;;;8.45;57.80;95380.22;5115653;28;20195;-70
2023/01/06 04:51:04;;;;;;;3.60;3.30;;;;;;;8.43;57.63;95382.50;5115491;28;20194;-70
2023/01/06 04:53:35;;;;;;;3.05;2.85;;;;;;;8.42;57.71;95389.97;5115151;28;20638;-71
2023/01/06 04:56:04;;;;;;;2.95;2.70;;;;;;;8.40;57.58;95392.22;5114646;28;20203;-71
2023/01/06 04:58:32;;;;;;;3.40;3.10;;;;;;;8.39;57.77;95401.59;5115474;28;20195;-70
2023/01/06 05:01:00;;;;;;;3.08;2.88;;;;;;;8.39;57.85;95415.34;5114577;28;20192;-71
2023/01/06 05:03:27;;;;;;;3.47;3.17;;;;;;;8.39;57.97;95418.09;5115062;28;20599;-70
2023/01/06 05:05:55;;;;;;;3.17;2.97;;;;;;;8.41;57.97;95423.25;5115047;28;20200;-70
2023/01/06 05:08:23;;;;;;;4.32;2.90;;;;;;;8.39;57.85;95403.56;5114466;28;20188;-71
2023/01/06 05:10:59;;;;;;;3.28;2.97;;;;;;;8.40;57.94;95418.91;5115332;28;20199;-71
2023/01/06 05:13:27;;;;;;;3.95;3.58;;;;;;;8.39;57.97;95411.81;5115087;28;20172;-71
2023/01/06 05:15:55;;;;;;;3.35;3.08;;;;;;;8.35;58.14;95406.13;5114477;28;20188;-70
2023/01/06 05:18:23;;;;;;;3.28;2.97;;;;;;;8.34;58.29;95406.44;5114469;28;20206;-70
2023/01/06 05:20:53;;;;;;;3.10;2.90;;;;;;;8.32;58.26;95423.28;5114057;28;20191;-70
2023/01/06 05:23:23;;;;;;;3.63;3.28;;;;;;;8.30;58.49;95411.78;5114134;28;20230;-70
2023/01/06 05:25:53;;;;;;;3.55;3.22;;;;;;;8.30;58.46;95417.28;5114057;28;20195;-70
2023/01/06 05:28:21;;;;;;;3.67;3.38;;;;;;;8.31;58.74;95418.09;5114254;28;20530;-70
2023/01/06 05:30:48;;;;;;;4.15;3.75;;;;;;;8.32;58.82;95430.72;5114000;28;20211;-70
2023/01/06 05:33:16;;;;;;;3.60;3.30;;;;;;;8.31;58.71;95440.06;5114027;28;20211;-71
2023/01/06 05:35:44;;;;;;;3.50;3.20;;;;;;;8.27;58.80;95437.19;5113873;28;20196;-70
2023/01/06 05:38:12;;;;;;;3.63;3.33;;;;;;;8.27;58.58;95450.13;5114045;28;20195;-70
2023/01/06 05:40:40;;;;;;;3.10;2.90;;;;;;;8.25;58.75;95452.41;5114137;28;20223;-70
2023/01/06 05:43:09;;;;;;;3.10;2.80;;;;;;;8.24;58.26;95467.25;5113828;28;20230;-70
2023/01/06 05:45:37;;;;;;;3.03;2.83;;;;;;;8.22;58.51;95464.84;5115539;28;20179;-70
2023/01/06 05:48:05;;;;;;;3.00;2.80;;;;;;;8.18;58.51;95458.41;5116550;28;20196;-70
2023/01/06 05:50:33;;;;;;;3.53;3.13;;;;;;;8.23;58.33;95449.16;5117462;28;20676;-70
2023/01/06 05:53:00;;;;;;;3.40;3.10;;;;;;;8.20;58.28;95445.13;5117473;28;20208;-70
2023/01/06 05:55:28;;;;;;;3.20;2.78;;;;;;;8.18;57.86;95461.16;5118519;28;20180;-70
2023/01/06 05:57:56;;;;;;;4.75;2.95;;;;;;;8.18;57.86;95469.38;5117430;28;20612;-71
2023/01/06 06:00:26;;;;;;;3.35;3.05;;;;;;;8.16;57.72;95449.66;5118740;28;20188;-71
2023/01/06 06:02:53;;;;;;;3.47;3.17;;;;;;;8.17;57.45;95459.53;5118605;28;20184;-71
2023/01/06 06:05:20;;;;;;;3.53;3.22;;;;;;;8.20;57.31;95465.16;5118367;28;20195;-70
2023/01/06 06:07:53;;;;;;;3.45;3.13;;;;;;;8.25;56.87;95460.66;5118145;28;20208;-71
2023/01/06 06:10:22;;;;;;;3.40;3.05;;;;;;;8.27;56.62;95455.63;5117624;28;20238;-70
2023/01/06 06:12:50;;;;;;;2.97;2.78;;;;;;;8.25;56.60;95444.16;5118265;28;20233;-70
2023/01/06 06:15:17;;;;;;;3.70;3.28;;;;;;;8.25;56.36;95433.97;5118233;28;20199;-70
2023/01/06 06:17:47;;;;;;;2.72;2.53;;;;;;;8.23;56.20;95438.97;5117554;28;20180;-71
2023/01/06 06:20:17;;;;;;;2.92;2.70;;;;;;;8.23;56.61;95428.00;5117192;28;20200;-71
2023/01/06 06:22:44;;;;;;;2.90;2.70;;;;;;;8.22;56.13;95437.38;5116924;28;20196;-70
2023/01/06 06:25:12;;;;;;;3.30;3.10;;;;;;;8.21;56.22;95430.28;5116935;28;20219;-70
2023/01/06 06:27:40;;;;;;;3.40;3.10;;;;;;;8.17;56.45;95430.13;5116924;28;20199;-70
2023/01/06 06:30:08;;;;;;;2.85;2.65;;;;;;;8.18;56.11;95436.41;5117094;28;20207;-70
2023/01/06 06:32:38;;;;;;;2.70;2.50;;;;;;;8.19;56.13;95458.06;5118016;28;20194;-70
2023/01/06 06:35:08;;;;;;;3.08;2.88;;;;;;;8.21;55.96;95444.00;5117932;28;20271;-71
2023/01/06 06:37:38;;;;;;;3.25;2.95;;;;;;;8.24;56.11;95457.06;5116845;28;20199;-70
2023/01/06 06:40:09;;;;;;;2.72;2.53;;;;;;;8.27;55.89;95461.09;5116678;28;20231;-70
2023/01/06 06:42:37;;;;;;;3.17;2.88;;;;;;;8.30;55.92;95471.44;5117628;28;20267;-71
2023/01/06 06:45:07;;;;;;;2.75;2.50;;;;;;;8.32;55.89;95467.25;5116625;28;20230;-70
2023/01/06 06:47:35;;;;;;;2.70;2.50;;;;;;;8.33;55.43;95466.09;5116449;28;20188;-70
2023/01/06 06:50:03;;;;;;;3.55;2.72;;;;;;;8.32;55.55;95464.50;5116808;28;20202;-70
2023/01/06 06:52:33;;;;;;;3.17;2.92;;;;;;;8.35;55.63;95465.75;5116639;28;20204;-70
2023/01/06 06:55:01;;;;;;;2.70;2.50;;;;;;;8.39;55.65;95480.53;5116539;28;20196;-70
2023/01/06 06:57:29;;;;;;;2.60;2.40;;;;;;;8.40;55.35;95485.69;5116581;28;20608;-70
2023/01/06 06:59:57;;;;;;;2.75;2.55;;;;;;;8.43;55.51;95484.22;5116705;28;20267;-70
2023/01/06 07:02:25;;;;;;;2.80;2.60;;;;;;;8.44;55.35;95497.63;5116360;28;20192;-71
2023/01/06 07:04:52;;;;;;;3.88;3.55;;;;;;;8.49;55.51;95495.81;5116299;28;20218;-70
2023/01/06 07:07:20;;;;;;;3.05;2.85;;;;;;;8.52;55.10;95492.41;5116971;28;20184;-71
2023/01/06 07:09:53;;;;;;;3.15;2.85;;;;;;;8.55;54.78;95491.78;5116629;28;20203;-70
2023/01/06 07:12:19;;;;;;;3.33;2.92;;;;;;;8.58;54.85;95504.84;5116066;28;20202;-70
2023/01/06 07:14:46;;;;;;;3.20;2.90;;;;;;;8.60;54.86;95508.06;5115900;28;20188;-70
2023/01/06 07:17:14;;;;;;;4.22;2.90;;;;;;;8.64;54.39;95501.59;5116949;28;20195;-71
2023/01/06 07:19:42;;;;;;;2.70;2.50;;;;;;;8.66;54.63;95502.06;5115747;28;20202;-70
2023/01/06 07:22:10;;;;;;;2.97;2.67;;;;;;;8.69;54.61;95503.34;5115793;28;20200;-70
2023/01/06 07:24:36;;;;;;;3.30;2.70;;;;;;;8.75;54.92;95501.22;5115776;28;20223;-70
2023/01/06 07:27:06;;;;;;;2.80;2.60;;;;;;;8.79;54.68;95508.50;5115762;28;20199;-70
2023/01/06 07:29:34;;;;;;;2.78;2.58;;;;;;;8.83;54.32;95505.88;5116384;28;20208;-70
2023/01/06 07:32:01;;;;;;;2.70;2.50;;;;;;;8.86;54.05;95506.03;5116133;28;20206;-70
2023/01/06 07:34:28;;;;;;;2.65;2.45;;;;;;;8.89;54.09;95516.34;5115987;28;20196;-70
2023/01/06 07:36:55;;;;;;;2.70;2.50;;;;;;;8.98;53.96;95532.84;5115733;28;20199;-70
2023/01/06 07:39:22;;;;;;;3.38;2.33;;;;;;;9.04;53.80;95536.19;5115760;28;20230;-71
2023/01/06 07:41:50;;;;;;;2.65;2.45;;;;;;;9.14;53.25;95547.63;5116046;28;20639;-70
2023/01/06 07:44:20;;;;;;;3.35;2.50;;;;;;;9.22;53.24;95545.97;5115262;28;20215;-70
2023/01/06 07:46:48;;;;;;;2.97;2.60;;;;;;;9.29;52.51;95542.69;5115690;28;20206;-70
2023/01/06 07:49:16;;;;;;;2.60;2.28;;;;;;;9.39;52.51;95553.31;5115348;28;20202;-70
2023/01/06 07:51:44;;;;;;;3.03;2.65;;;;;;;9.42;52.65;95544.41;5115692;28;20196;-70
2023/01/06 07:54:12;;;;;;;3.75;2.40;;;;;;;9.49;52.43;95555.69;5116428;28;20200;-70
2023/01/06 07:56:39;;;;;;;2.80;2.47;;;;;;;9.52;52.11;95555.03;5115643;28;20206;-70
2023/01/06 07:59:05;;;;;;;2.60;2.40;;;;;;;9.61;52.26;95553.00;5115194;28;20198;-70
2023/01/06 08:01:35;;;;;;;2.80;2.60;;;;;;;9.70;52.30;95552.97;5115576;28;20647;-70
2023/01/06 08:04:03;;;;;;;2.70;2.50;;;;;;;9.80;52.10;95551.72;5116019;28;20546;-70
2023/01/06 08:06:31;;;;;;;2.88;2.60;;;;;;;9.90;52.13;95551.31;5115496;28;20256;-70
2023/01/06 08:08:59;;;;;;;2.63;2.42;;;;;;;9.98;51.04;95555.16;5115218;28;20530;-70
2023/01/06 08:11:27;;;;;;;2.53;2.33;;;;;;;9.95;51.33;95553.91;5115317;28;20316;-70
2023/01/06 08:13:55;;;;;;;3.10;2.33;;;;;;;9.96;51.14;95543.69;5115539;28;20200;-70
2023/01/06 08:16:23;;;;;;;2.70;2.50;;;;;;;10.03;50.44;95552.22;5116191;28;20184;-71
2023/01/06 08:18:51;;;;;;;2.53;2.33;;;;;;;10.00;50.61;95556.44;5115626;28;20184;-70
2023/01/06 08:21:20;;;;;;;2.88;2.47;;;;;;;10.07;50.46;95553.13;5116046;28;20194;-70
2023/01/06 08:23:47;;;;;;;2.90;2.70;;;;;;;10.12;50.11;95547.41;5115989;28;20179;-70
2023/01/06 08:26:18;;;;;;;3.20;2.90;;;;;;;10.14;49.91;95550.66;5115688;28;20188;-70
2023/01/06 08:28:49;;;;;;;3.35;2.22;;;;;;;10.13;49.79;95554.56;5115957;28;20212;-70
2023/01/06 08:31:22;;;;;;;2.35;2.15;;;;;;;10.07;50.15;95555.91;5114922;28;20194;-70
2023/01/06 08:33:52;;;;;;;3.45;2.47;;;;;;;9.97;50.45;95553.53;5115799;28;20196;-70
2023/01/06 08:36:22;;;;;;;2.60;2.40;;;;;;;9.91;50.58;95552.13;5115422;28;20191;-70
2023/01/06 08:38:49;;;;;;;3.22;2.92;;;;;;;9.88;50.18;95562.69;5114418;28;20195;-70
2023/01/06 08:41:18;;;;;;;3.15;2.30;;;;;;;9.80;49.88;95573.78;5114783;28;20196;-70
2023/01/06 08:43:47;;;;;;;1.92;1.55;;;;;;;9.77;50.01;95566.19;5115721;28;20188;-70
2023/01/06 08:46:17;;;;;;;1.95;1.75;;;;;;;9.86;49.91;95566.91;5114826;28;20199;-70
2023/01/06 08:48:43;;;;;;;1.85;1.75;;;;;;;10.01;50.01;95569.06;5115354;28;20207;-70
2023/01/06 08:51:15;;;;;;;1.83;1.70;;;;;;;10.02;49.60;95565.19;5097747;28;20215;-70
2023/01/06 08:53:44;;;;;;;2.42;1.80;;;;;;;10.13;49.65;95568.34;5114977;28;20191;-71
2023/01/06 08:56:13;;;;;;;2.63;2.35;;;;;;;10.21;48.70;95564.69;5115593;28;20184;-70
2023/01/06 08:58:40;;;;;;;3.35;2.50;;;;;;;10.25;48.22;95562.91;5115388;28;20241;-70
2023/01/06 09:01:07;;;;;;;1.90;1.80;;;;;;;10.24;47.53;95555.75;5114260;28;20195;-70
2023/01/06 09:03:34;;;;;;;2.45;2.17;;;;;;;10.15;47.79;95557.75;5114247;28;20199;-70
2023/01/06 09:06:01;;;;;;;2.42;2.15;;;;;;;10.21;48.13;95558.38;5114406;28;20374;-70
2023/01/06 09:08:31;;;;;;;3.42;3.13;;;;;;;10.24;47.94;95563.19;5114443;28;20211;-70
2023/01/06 09:10:57;;;;;;;2.92;2.65;;;;;;;10.32;48.25;95557.63;5114537;28;20539;-70
2023/01/06 09:13:25;;;;;;;2.13;1.65;;;;;;;10.42;47.68;95548.16;5114206;28;20187;-70
2023/01/06 09:15:54;;;;;;;3.35;1.90;;;;;;;10.45;47.44;95550.19;5114449;28;20187;-70
2023/01/06 09:18:24;;;;;;;1.90;1.63;;;;;;;10.50;46.64;95549.19;5114472;28;20196;-70
2023/01/06 09:20:51;;;;;;;1.63;1.48;;;;;;;10.33;47.00;95539.94;5114239;28;20234;-70
2023/01/06 09:23:17;;;;;;;2.22;1.70;;;;;;;10.28;47.86;95536.59;5117611;28;20191;-71
2023/01/06 09:25:47;;;;;;;1.60;1.50;;;;;;;10.46;47.83;95531.72;5118112;28;20241;-70
2023/01/06 09:28:15;;;;;;;2.08;1.40;;;;;;;10.55;47.29;95529.66;5118213;28;20203;-70
2023/01/06 09:30:45;;;;;;;3.65;1.60;;;;;;;10.65;47.77;95529.22;5118466;28;20214;-70
2023/01/06 09:33:13;;;;;;;2.38;1.38;;;;;;;11.14;46.84;95529.25;5118020;28;20560;-70
2023/01/06 09:35:41;;;;;;;2.40;1.55;;;;;;;11.49;45.94;95540.63;5118453;28;20234;-70
2023/01/06 09:38:09;;;;;;;2.17;2.00;;;;;;;11.54;45.06;95542.34;5118970;28;20213;-70
2023/01/06 09:40:44;;;;;;;2.83;1.85;;;;;;;11.48;44.81;95533.50;5117765;28;20239;-71
2023/01/06 09:43:27;;;;;;;2.40;2.20;;;;;;;11.39;44.92;95527.28;5118130;28;20199;-71
2023/01/06 09:46:00;;;;;;;2.50;2.30;;;;;;;11.45;45.06;95527.88;5117665;28;20273;-71
2023/01/06 09:48:33;;;;;;;2.38;2.13;;;;;;;11.64;45.27;95511.47;5119045;28;20218;-71
2023/01/06 09:51:04;;;;;;;2.55;2.10;;;;;;;11.87;44.77;95524.81;5118769;28;20184;-71
2023/01/06 09:53:35;;;;;;;2.03;1.75;;;;;;;11.95;44.10;95507.28;5118668;28;20180;-70
2023/01/06 09:56:05;;;;;;;3.65;1.80;;;;;;;11.83;43.98;95519.13;5117966;28;20196;-70
2023/01/06 09:58:39;;;;;;;2.63;1.77;;;;;;;11.88;43.55;95504.31;5118053;28;20202;-70
2023/01/06 10:01:09;;;;;;;2.17;1.70;;;;;;;11.88;43.20;95516.19;5118563;28;20194;-70
2023/01/06 10:03:36;;;;;;;2.42;2.05;;;;;;;11.93;43.37;95510.38;5117901;28;20200;-70
2023/01/06 10:06:15;;;;;;;2.05;1.85;;;;;;;11.98;43.57;95506.56;5117777;28;20311;-70
2023/01/06 10:08:54;;;;;;;3.05;1.70;;;;;;;12.39;43.62;95510.91;5117587;28;20203;-70
2023/01/06 10:11:27;;;;;;;2.35;1.80;;;;;;;12.88;42.57;95505.03;5117758;28;20196;-71
2023/01/06 10:14:06;;;;;;;3.33;1.70;;;;;;;13.14;41.52;95495.38;5118012;28;20192;-71
2023/01/06 10:16:46;;;;;;;1.58;1.33;;;;;;;13.43;40.13;95492.16;5117602;28;20199;-70
2023/01/06 10:19:26;;;;;;;2.33;1.83;;;;;;;13.58;39.78;95498.84;5117914;28;20180;-71
2023/01/06 10:22:00;;;;;;;2.78;1.90;;;;;;;13.43;40.04;95483.03;5117932;28;20610;-71
2023/01/06 10:24:55;;;;;;;2.55;1.38;;;;;;;13.58;39.24;95489.69;5117220;28;20200;-71
2023/01/06 10:27:27;;;;;;;1.60;1.50;;;;;;;13.81;39.18;95473.19;5115512;28;20631;-71
2023/01/06 10:29:56;;;;;;;2.22;1.90;;;;;;;14.00;38.62;95477.94;5117385;28;20257;-70
2023/01/06 10:32:28;;;;;;;1.60;1.50;;;;;;;13.86;38.09;95482.00;5117261;28;20210;-70
2023/01/06 10:34:55;;;;;;;2.13;1.80;;;;;;;13.69;38.94;95466.63;5116709;28;20192;-70
2023/01/06 10:37:26;;;;;;;2.30;2.10;;;;;;;13.52;38.84;95469.78;5116972;28;20199;-70
2023/01/06 10:39:59;;;;;;;2.20;2.00;;;;;;;13.34;39.47;95486.00;5117090;28;20246;-71
2023/01/06 10:45:17;;;;;;;2.00;1.80;;;;;;;12.70;41.40;95489.94;5116392;28;20225;-71
2023/01/06 10:47:45;;;;;;;2.08;1.70;;;;;;;12.45;41.05;95481.00;5116418;28;20199;-70
2023/01/06 10:50:15;;;;;;;2.05;1.85;;;;;;;12.18;41.83;95474.34;5116438;28;20207;-70
2023/01/06 10:52:44;;;;;;;1.80;1.70;;;;;;;12.08;41.47;95472.09;5116456;28;20194;-70
2023/01/06 10:55:36;;;;;;;2.97;1.60;;;;;;;11.85;41.34;95469.09;5116352;28;20604;-70
2023/01/06 10:58:17;;;;;;;2.08;1.88;;;;;;;11.71;42.23;95459.19;5114426;28;20219;-70
2023/01/06 11:01:00;;;;;;;2.78;1.92;;;;;;;11.51;43.21;95444.41;5117301;28;20596;-70
2023/01/06 11:03:29;;;;;;;2.75;1.77;;;;;;;11.39;43.63;95438.91;5117042;28;20199;-70
2023/01/06 11:06:00;;;;;;;2.25;1.73;;;;;;;11.30;43.84;95444.59;5117400;28;20225;-71
2023/01/06 11:08:28;;;;;;;1.98;1.80;;;;;;;11.22;44.22;95440.00;5116704;28;20221;-70
2023/01/06 11:10:56;;;;;;;2.40;1.90;;;;;;;11.18;44.26;95447.34;5116254;28;20192;-71
2023/01/06 11:13:27;;;;;;;3.03;2.10;;;;;;;11.12;44.32;95442.44;5117262;28;20207;-71
2023/01/06 11:15:55;;;;;;;2.10;1.90;;;;;;;11.07;44.56;95440.69;5117390;28;20253;-71
2023/01/06 11:18:26;;;;;;;1.83;1.73;;;;;;;10.98;44.36;95449.09;5117929;28;20187;-71
2023/01/06 11:21:03;;;;;;;2.10;1.90;;;;;;;10.90;44.67;95465.78;5116948;28;20199;-71
2023/01/06 11:23:32;;;;;;;2.15;1.70;;;;;;;10.84;44.95;95459.69;5116815;28;20233;-71
2023/01/06 11:26:14;;;;;;;1.85;1.70;;;;;;;10.97;45.12;95452.22;5116646;28;20230;-71
2023/01/06 11:28:43;;;;;;;1.73;1.63;;;;;;;11.57;44.02;95450.50;5115979;28;20607;-70
2023/01/06 11:31:18;;;;;;;1.92;1.83;;;;;;;12.22;42.70;95444.84;5117055;28;20191;-70
2023/01/06 11:33:52;;;;;;;2.20;2.00;;;;;;;12.77;41.00;95449.41;5116013;28;20688;-71
2023/01/06 11:36:23;;;;;;;2.33;1.88;;;;;;;12.79;41.35;95443.53;5116436;28;20223;-71
2023/01/06 11:38:54;;;;;;;4.00;2.72;;;;;;;13.27;40.31;95447.06;5117518;28;20206;-71
2023/01/06 11:41:27;;;;;;;3.00;1.92;;;;;;;13.38;39.92;95442.56;5118012;28;20233;-72
2023/01/06 11:43:58;;;;;;;1.92;1.80;;;;;;;13.27;39.95;95443.50;5118250;28;20180;-73
2023/01/06 11:46:25;;;;;;;1.90;1.80;;;;;;;13.76;39.70;95438.22;5115551;28;20663;-71
2023/01/06 11:48:59;;;;;;;2.60;2.40;;;;;;;13.90;39.06;95444.06;5116521;28;20199;-70
2023/01/06 11:51:46;;;;;;;3.20;2.53;;;;;;;13.86;39.42;95453.47;5100655;28;20204;-72
2023/01/06 11:54:31;;;;;;;2.40;2.20;;;;;;;13.86;39.23;95453.47;5117294;28;20253;-72
2023/01/06 11:57:05;;;;;;;1.90;1.80;;;;;;;13.42;39.24;95451.75;5116939;28;20188;-70
2023/01/06 11:59:45;;;;;;;1.83;1.60;;;;;;;12.95;39.65;95451.81;5117097;28;20192;-70
2023/01/06 12:02:21;;;;;;;2.03;1.70;;;;;;;12.94;39.74;95453.78;5118041;28;20199;-71